This is the latest recevied weather packets stored in our database for station/object F4CYQ-10. If no packets are shown the sender has not sent any weather packets the latest 10 day(s).
| Time | Temp. | Humidity | Pressure | Rain* | Wind** | Luminosity | Snow |
|---|---|---|---|---|---|---|---|
| 1777794546 | 18.89° C | 61% | 1015.2 hPa | - | - | - | - |
| 1777793645 | 21.11° C | 60% | 1015.1 hPa | - | - | - | - |
| 1777793005 | 21.11° C | 60% | 1015.1 hPa | - | - | - | - |
| 1777792742 | 21.11° C | 60% | 1015.1 hPa | - | - | - | - |
| 1777792500 | 18.33° C | 60% | 1015.1 hPa | - | - | - | - |
| 1777792327 | -5° C | 100% | 4.8 hPa | - | - | - | - |
| 1777791600 | 17.78° C | 60% | 1014.9 hPa | - | - | - | - |
| 1777790698 | 17.78° C | 59% | 1014.8 hPa | - | - | - | - |
| 1777789797 | -5° C | 100% | 4.8 hPa | - | - | - | - |
| 1777789449 | 17.78° C | 59% | 1014.6 hPa | - | - | - | - |
| 1777788548 | 18.33° C | 59% | 1014.6 hPa | - | - | - | - |
| 1777787648 | 18.89° C | 59% | 1014.5 hPa | - | - | - | - |
| 1777786746 | 19.44° C | 59% | 1014.4 hPa | - | - | - | - |
| 1777786340 | 17.22° C | 59% | 1014.3 hPa | - | - | - | - |
| 1777785439 | 17.22° C | 60% | 1014.2 hPa | - | - | - | - |
| 1777784538 | 17.22° C | 59% | 1014.1 hPa | - | - | - | - |
| 1777783637 | 17.22° C | 59% | 1014.1 hPa | - | - | - | - |
| 1777783231 | 18.33° C | 59% | 1014.1 hPa | - | - | - | - |
| 1777782330 | 18.33° C | 59% | 1014.1 hPa | - | - | - | - |
| 1777781429 | 18.33° C | 60% | 1014.1 hPa | - | - | - | - |
| 1777780528 | 19.44° C | 61% | 1014.3 hPa | - | - | - | - |
| 1777779958 | 18.33° C | 60% | 1014.3 hPa | - | - | - | - |
| 1777779057 | 18.33° C | 61% | 1014.4 hPa | - | - | - | - |
| 1777778156 | 18.33° C | 61% | 1014.4 hPa | - | - | - | - |
| 1777777315 | 17.78° C | 60% | 1014.4 hPa | - | - | - | - |
* Rain since midnight (hover to see other rain measurements)
** Current wind speed in m/s (hover to see current wind gust speed)